Kezdőlap
METAR-TAF:

METAR-TAF

Repülőterek :

Mesquite, Texas, Amerikai Egyesült Államok

földrajzi szélesség: 32-44-49N, földrajzi hosszúság: 096-31-49W, magasság: 136 m

Jelenlegi meteorológiai megfigyelések

A jelentés 33 perccel ezelõtt készült, 17:51 UTC
Délkeleti szél 8 kt
Hőmérséklet 34°C
Páratartalom 47%
Légköri nyomás 1019 hPa
Látótávolság: 16.1 km
Kevés felhő 4200 lábon

METAR: KHQZ 121751Z 14008KT 10SM FEW042 34/21 A3009

Idő: 13:24 (18:24 UTC)


TAF: hiányzik

Meteorológiai megfigyelések és előrejelzések több, mint 4000 repülőtéren (METAR és TAF jelentéseket).

A térképen piros és sárga pontok jelzik az elérhető meteorológiai állomásokat.

Mozgassa az egeret a pont fölött, hogy megjelenjen az állomás neve.

Azután kattintson az időjárási megfigyelések és előrejelzések megtekintéséhez.

A térkép megváltoztatása: kattintson a fekete keresztel jelölt zöld gombra ráközelítéshez, a vonallal jelölt zöld gombra távolításhoz, vagy a zöld nyilakra a szomszédos térképek eléréséhez.


METAR-TAF: